createdAt,value
2023-01-19T00:00:04.112Z,1.8
2023-01-19T00:15:01.667Z,1.8
2023-01-19T00:30:02.155Z,1.9
2023-01-19T00:45:00.922Z,1.9
2023-01-19T00:50:01.976Z,2.0
2023-01-19T00:55:06.414Z,1.9
2023-01-19T01:00:08.115Z,2.0
2023-01-19T01:15:00.979Z,2.0
2023-01-19T01:20:00.899Z,2.1
2023-01-19T01:30:00.912Z,2.1
2023-01-19T01:45:01.947Z,2.2
2023-01-19T02:00:04.322Z,2.2
2023-01-19T02:15:00.955Z,2.3
2023-01-19T02:30:00.943Z,2.3
2023-01-19T02:40:02.145Z,2.4
2023-01-19T02:45:00.974Z,2.4
2023-01-19T03:00:02.765Z,2.4
2023-01-19T03:10:01.921Z,2.5
2023-01-19T03:15:06.428Z,2.5
2023-01-19T03:30:00.964Z,2.5
2023-01-19T03:45:01.117Z,2.5
2023-01-19T03:50:01.557Z,2.4
2023-01-19T04:00:15.720Z,2.4
2023-01-19T04:25:01.248Z,2.5
2023-01-19T04:30:01.101Z,2.5
2023-01-19T04:45:07.958Z,2.5
2023-01-19T05:00:04.193Z,2.4
2023-01-19T05:10:01.336Z,2.3
2023-01-19T05:15:01.215Z,2.2
2023-01-19T05:20:01.478Z,2.1
2023-01-19T05:25:01.200Z,1.9
2023-01-19T05:30:01.163Z,1.8
2023-01-19T05:40:01.683Z,1.7
2023-01-19T05:45:01.291Z,1.7
2023-01-19T06:00:04.610Z,1.7
2023-01-19T06:15:01.266Z,1.7
2023-01-19T06:30:02.091Z,1.8
2023-01-19T06:40:01.310Z,1.9
2023-01-19T06:45:01.312Z,2.0
2023-01-19T06:50:01.261Z,2.1
2023-01-19T07:00:02.710Z,2.2
2023-01-19T07:05:15.999Z,2.3
2023-01-19T07:35:02.181Z,2.6
2023-01-19T07:45:01.042Z,2.6
2023-01-19T07:55:01.049Z,2.7
2023-01-19T08:00:03.732Z,2.7
2023-01-19T08:05:15.841Z,2.8
2023-01-19T08:35:00.900Z,3.1
2023-01-19T08:45:00.691Z,3.1
2023-01-19T09:00:02.842Z,3.1
2023-01-19T09:05:00.890Z,3.2
2023-01-19T09:15:00.793Z,3.2
2023-01-19T09:20:01.888Z,3.3
2023-01-19T09:30:01.513Z,3.4
2023-01-19T09:40:01.988Z,3.5
2023-01-19T09:45:02.928Z,3.6
2023-01-19T10:00:07.726Z,3.7
2023-01-19T10:15:14.259Z,3.8
2023-01-19T10:20:19.627Z,3.9
2023-01-19T10:25:19.590Z,4.0
2023-01-19T10:31:17.535Z,4.1
2023-01-19T10:43:14.576Z,4.2
2023-01-19T10:55:12.030Z,4.3
2023-01-19T11:00:10.927Z,4.4
2023-01-19T11:06:09.633Z,4.6
2023-01-19T11:12:08.859Z,4.9
2023-01-19T11:18:31.506Z,5.0
2023-01-19T11:23:07.578Z,5.2
2023-01-19T11:29:07.174Z,5.3
2023-01-19T11:35:07.200Z,5.4
2023-01-19T11:40:06.841Z,5.3
2023-01-19T11:45:05.823Z,5.2
2023-01-19T11:51:06.603Z,5.1
2023-01-19T11:56:04.729Z,4.9
2023-01-19T12:02:04.406Z,4.8
2023-01-19T12:12:03.785Z,4.7
2023-01-19T12:45:01.004Z,4.8
2023-01-19T12:50:00.757Z,4.9
2023-01-19T13:00:03.520Z,4.9
2023-01-19T13:05:00.769Z,4.8
2023-01-19T13:10:01.028Z,4.7
2023-01-19T13:15:01.299Z,4.6
2023-01-19T13:20:00.747Z,4.5
2023-01-19T13:30:01.182Z,4.5
2023-01-19T13:45:01.489Z,4.6
2023-01-19T14:00:01.238Z,4.5
2023-01-19T14:05:01.577Z,4.4
2023-01-19T14:10:01.046Z,4.2
2023-01-19T14:15:00.732Z,4.1
2023-01-19T14:20:01.110Z,3.9
2023-01-19T14:30:01.604Z,3.8
2023-01-19T14:45:00.747Z,3.8
2023-01-19T14:50:00.667Z,3.7
2023-01-19T15:00:06.251Z,3.7
2023-01-19T15:05:00.658Z,3.8
2023-01-19T15:15:01.620Z,3.8
2023-01-19T15:25:00.884Z,3.7
2023-01-19T15:30:00.786Z,3.6
2023-01-19T15:40:00.747Z,3.5
2023-01-19T15:45:01.693Z,3.5
2023-01-19T15:50:00.695Z,3.4
2023-01-19T15:55:01.583Z,3.3
2023-01-19T16:00:03.454Z,3.3
2023-01-19T16:05:00.822Z,3.2
2023-01-19T16:15:00.805Z,3.2
2023-01-19T16:30:01.663Z,3.2
2023-01-19T16:35:00.673Z,3.1
2023-01-19T16:45:00.711Z,3.0
2023-01-19T16:50:01.609Z,2.9
2023-01-19T17:00:01.031Z,2.8
2023-01-19T17:10:00.739Z,2.7
2023-01-19T17:15:01.340Z,2.7
2023-01-19T17:30:01.084Z,2.6
2023-01-19T17:40:00.865Z,2.5
2023-01-19T17:45:00.910Z,2.4
2023-01-19T17:50:00.889Z,2.3
2023-01-19T18:00:03.661Z,2.3
2023-01-19T18:15:00.880Z,2.3
2023-01-19T18:20:00.732Z,2.2
2023-01-19T18:30:00.895Z,2.1
2023-01-19T18:40:00.885Z,2.0
2023-01-19T18:45:00.826Z,2.0
2023-01-19T19:00:03.196Z,1.9
2023-01-19T19:15:00.857Z,1.9
2023-01-19T19:25:01.006Z,2.0
2023-01-19T19:30:00.755Z,2.0
2023-01-19T19:40:00.789Z,1.9
2023-01-19T19:45:01.820Z,1.9
2023-01-19T19:50:00.729Z,1.8
2023-01-19T20:00:03.042Z,1.8
2023-01-19T20:15:01.217Z,1.9
2023-01-19T20:25:00.861Z,2.0
2023-01-19T20:30:00.817Z,2.0
2023-01-19T20:45:00.890Z,2.0
2023-01-19T20:50:00.949Z,2.1
2023-01-19T21:00:01.141Z,2.1
2023-01-19T21:15:00.917Z,2.1
2023-01-19T21:20:00.776Z,2.0
2023-01-19T21:30:01.860Z,2.0
2023-01-19T21:45:00.946Z,2.0
2023-01-19T21:50:00.839Z,2.1
2023-01-19T22:00:02.649Z,2.2
2023-01-19T22:15:00.931Z,2.2
2023-01-19T22:20:00.825Z,2.3
2023-01-19T22:30:00.958Z,2.3
2023-01-19T22:40:01.919Z,2.4
2023-01-19T22:45:01.937Z,2.4
2023-01-19T23:00:01.086Z,2.5
2023-01-19T23:15:01.996Z,2.5
2023-01-19T23:30:01.574Z,2.4
2023-01-19T23:45:01.718Z,2.4
